sensor_id;sensor_type;location;lat;lon;timestamp;P1;durP1;ratioP1;P2;durP2;ratioP2
14169;SDS011;63889;50.596;8.690;2023-07-08T00:01:10;6.68;;;3.15;;
14169;SDS011;63889;50.596;8.690;2023-07-08T00:03:38;4.40;;;2.92;;
14169;SDS011;63889;50.596;8.690;2023-07-08T00:06:04;8.95;;;3.50;;
14169;SDS011;63889;50.596;8.690;2023-07-08T00:08:29;6.00;;;3.30;;
14169;SDS011;63889;50.596;8.690;2023-07-08T00:10:55;7.78;;;3.00;;
14169;SDS011;63889;50.596;8.690;2023-07-08T00:13:20;8.30;;;3.50;;
14169;SDS011;63889;50.596;8.690;2023-07-08T00:15:46;8.43;;;2.97;;
14169;SDS011;63889;50.596;8.690;2023-07-08T00:18:12;4.70;;;2.55;;
14169;SDS011;63889;50.596;8.690;2023-07-08T00:20:47;7.50;;;2.92;;
14169;SDS011;63889;50.596;8.690;2023-07-08T00:23:14;7.32;;;3.13;;
14169;SDS011;63889;50.596;8.690;2023-07-08T00:25:41;5.63;;;2.92;;
14169;SDS011;63889;50.596;8.690;2023-07-08T00:28:14;7.15;;;3.00;;
14169;SDS011;63889;50.596;8.690;2023-07-08T00:30:41;5.07;;;2.90;;
14169;SDS011;63889;50.596;8.690;2023-07-08T00:33:07;9.27;;;2.72;;
14169;SDS011;63889;50.596;8.690;2023-07-08T00:35:34;6.30;;;2.85;;
14169;SDS011;63889;50.596;8.690;2023-07-08T00:38:02;5.32;;;3.13;;
14169;SDS011;63889;50.596;8.690;2023-07-08T00:40:37;6.13;;;2.92;;
14169;SDS011;63889;50.596;8.690;2023-07-08T00:43:03;4.47;;;2.40;;
14169;SDS011;63889;50.596;8.690;2023-07-08T00:45:43;4.43;;;2.95;;
14169;SDS011;63889;50.596;8.690;2023-07-08T00:48:23;3.45;;;2.38;;
14169;SDS011;63889;50.596;8.690;2023-07-08T00:50:53;5.50;;;2.55;;
14169;SDS011;63889;50.596;8.690;2023-07-08T00:55:47;5.57;;;2.75;;
14169;SDS011;63889;50.596;8.690;2023-07-08T00:58:13;3.65;;;2.75;;
14169;SDS011;63889;50.596;8.690;2023-07-08T01:00:41;5.15;;;2.90;;
14169;SDS011;63889;50.596;8.690;2023-07-08T01:03:07;4.88;;;2.95;;
14169;SDS011;63889;50.596;8.690;2023-07-08T01:05:33;6.53;;;2.67;;
14169;SDS011;63889;50.596;8.690;2023-07-08T01:08:01;3.85;;;2.60;;
14169;SDS011;63889;50.596;8.690;2023-07-08T01:10:34;5.82;;;2.25;;
14169;SDS011;63889;50.596;8.690;2023-07-08T01:13:06;5.28;;;2.72;;
14169;SDS011;63889;50.596;8.690;2023-07-08T01:15:39;4.40;;;2.88;;
14169;SDS011;63889;50.596;8.690;2023-07-08T01:18:07;8.35;;;3.30;;
14169;SDS011;63889;50.596;8.690;2023-07-08T01:20:34;6.80;;;2.80;;
14169;SDS011;63889;50.596;8.690;2023-07-08T01:23:00;4.97;;;2.90;;
14169;SDS011;63889;50.596;8.690;2023-07-08T01:25:26;3.97;;;2.95;;
14169;SDS011;63889;50.596;8.690;2023-07-08T01:27:53;5.07;;;2.47;;
14169;SDS011;63889;50.596;8.690;2023-07-08T01:30:21;6.28;;;2.63;;
14169;SDS011;63889;50.596;8.690;2023-07-08T01:32:48;4.55;;;2.50;;
14169;SDS011;63889;50.596;8.690;2023-07-08T01:35:17;3.83;;;2.72;;
14169;SDS011;63889;50.596;8.690;2023-07-08T01:37:44;6.20;;;2.08;;
14169;SDS011;63889;50.596;8.690;2023-07-08T01:42:53;8.43;;;2.55;;
14169;SDS011;63889;50.596;8.690;2023-07-08T01:45:20;5.90;;;2.85;;
14169;SDS011;63889;50.596;8.690;2023-07-08T01:47:53;4.50;;;2.50;;
14169;SDS011;63889;50.596;8.690;2023-07-08T01:50:21;6.65;;;2.80;;
14169;SDS011;63889;50.596;8.690;2023-07-08T01:52:50;5.82;;;2.65;;
14169;SDS011;63889;50.596;8.690;2023-07-08T01:55:20;7.68;;;2.72;;
14169;SDS011;63889;50.596;8.690;2023-07-08T01:57:53;6.65;;;2.53;;
14169;SDS011;63889;50.596;8.690;2023-07-08T02:00:19;4.97;;;2.95;;
14169;SDS011;63889;50.596;8.690;2023-07-08T02:02:45;5.53;;;2.60;;
14169;SDS011;63889;50.596;8.690;2023-07-08T02:05:11;4.75;;;2.47;;
14169;SDS011;63889;50.596;8.690;2023-07-08T02:07:37;6.57;;;2.40;;
14169;SDS011;63889;50.596;8.690;2023-07-08T02:10:02;3.90;;;2.67;;
14169;SDS011;63889;50.596;8.690;2023-07-08T02:12:28;4.93;;;2.65;;
14169;SDS011;63889;50.596;8.690;2023-07-08T02:14:54;5.43;;;2.85;;
14169;SDS011;63889;50.596;8.690;2023-07-08T02:17:19;6.97;;;2.88;;
14169;SDS011;63889;50.596;8.690;2023-07-08T02:19:45;8.63;;;2.50;;
14169;SDS011;63889;50.596;8.690;2023-07-08T02:22:10;5.03;;;2.42;;
14169;SDS011;63889;50.596;8.690;2023-07-08T02:24:36;4.25;;;2.50;;
14169;SDS011;63889;50.596;8.690;2023-07-08T02:27:02;6.55;;;3.28;;
14169;SDS011;63889;50.596;8.690;2023-07-08T02:29:27;8.00;;;2.55;;
14169;SDS011;63889;50.596;8.690;2023-07-08T02:31:53;3.00;;;2.20;;
14169;SDS011;63889;50.596;8.690;2023-07-08T02:34:18;6.43;;;2.50;;
14169;SDS011;63889;50.596;8.690;2023-07-08T02:36:44;4.55;;;2.90;;
14169;SDS011;63889;50.596;8.690;2023-07-08T02:39:10;4.50;;;2.97;;
14169;SDS011;63889;50.596;8.690;2023-07-08T02:41:36;6.75;;;2.75;;
14169;SDS011;63889;50.596;8.690;2023-07-08T02:44:02;5.10;;;2.50;;
14169;SDS011;63889;50.596;8.690;2023-07-08T02:46:27;7.90;;;2.85;;
14169;SDS011;63889;50.596;8.690;2023-07-08T02:48:53;5.00;;;2.38;;
14169;SDS011;63889;50.596;8.690;2023-07-08T02:51:19;5.65;;;2.70;;
14169;SDS011;63889;50.596;8.690;2023-07-08T02:53:44;6.40;;;2.42;;
14169;SDS011;63889;50.596;8.690;2023-07-08T02:56:10;4.03;;;2.70;;
14169;SDS011;63889;50.596;8.690;2023-07-08T02:58:35;5.38;;;2.67;;
14169;SDS011;63889;50.596;8.690;2023-07-08T03:01:01;4.97;;;2.50;;
14169;SDS011;63889;50.596;8.690;2023-07-08T03:03:27;5.78;;;2.30;;
14169;SDS011;63889;50.596;8.690;2023-07-08T03:05:56;6.93;;;2.97;;
14169;SDS011;63889;50.596;8.690;2023-07-08T03:08:24;6.13;;;3.25;;
14169;SDS011;63889;50.596;8.690;2023-07-08T03:10:54;4.88;;;2.65;;
14169;SDS011;63889;50.596;8.690;2023-07-08T03:13:22;5.70;;;2.58;;
14169;SDS011;63889;50.596;8.690;2023-07-08T03:15:47;5.55;;;2.95;;
14169;SDS011;63889;50.596;8.690;2023-07-08T03:18:13;4.07;;;3.00;;
14169;SDS011;63889;50.596;8.690;2023-07-08T03:20:39;5.60;;;2.53;;
14169;SDS011;63889;50.596;8.690;2023-07-08T03:23:05;6.47;;;2.70;;
14169;SDS011;63889;50.596;8.690;2023-07-08T03:25:30;4.28;;;2.95;;
14169;SDS011;63889;50.596;8.690;2023-07-08T03:27:56;4.30;;;2.22;;
14169;SDS011;63889;50.596;8.690;2023-07-08T03:30:22;5.28;;;3.00;;
14169;SDS011;63889;50.596;8.690;2023-07-08T03:32:48;3.78;;;2.67;;
14169;SDS011;63889;50.596;8.690;2023-07-08T03:35:13;7.47;;;2.55;;
14169;SDS011;63889;50.596;8.690;2023-07-08T03:37:39;6.18;;;2.60;;
14169;SDS011;63889;50.596;8.690;2023-07-08T03:40:07;3.75;;;2.42;;
14169;SDS011;63889;50.596;8.690;2023-07-08T03:42:34;6.38;;;2.55;;
14169;SDS011;63889;50.596;8.690;2023-07-08T03:45:00;4.25;;;2.65;;
14169;SDS011;63889;50.596;8.690;2023-07-08T03:47:25;5.43;;;2.65;;
14169;SDS011;63889;50.596;8.690;2023-07-08T03:49:51;7.43;;;2.85;;
14169;SDS011;63889;50.596;8.690;2023-07-08T03:52:16;8.07;;;3.15;;
14169;SDS011;63889;50.596;8.690;2023-07-08T03:54:42;5.80;;;2.65;;
14169;SDS011;63889;50.596;8.690;2023-07-08T03:57:09;6.60;;;2.90;;
14169;SDS011;63889;50.596;8.690;2023-07-08T03:59:34;4.65;;;2.80;;
14169;SDS011;63889;50.596;8.690;2023-07-08T04:02:00;4.55;;;2.60;;
14169;SDS011;63889;50.596;8.690;2023-07-08T04:04:25;7.28;;;2.95;;
14169;SDS011;63889;50.596;8.690;2023-07-08T04:06:51;3.80;;;2.42;;
14169;SDS011;63889;50.596;8.690;2023-07-08T04:09:16;4.80;;;2.90;;
14169;SDS011;63889;50.596;8.690;2023-07-08T04:11:42;3.55;;;2.70;;
14169;SDS011;63889;50.596;8.690;2023-07-08T04:14:08;5.80;;;2.80;;
14169;SDS011;63889;50.596;8.690;2023-07-08T04:19:10;5.70;;;3.28;;
14169;SDS011;63889;50.596;8.690;2023-07-08T04:21:39;5.68;;;3.15;;
14169;SDS011;63889;50.596;8.690;2023-07-08T04:24:05;4.70;;;2.90;;
14169;SDS011;63889;50.596;8.690;2023-07-08T04:26:31;3.85;;;2.50;;
14169;SDS011;63889;50.596;8.690;2023-07-08T04:29:00;3.55;;;2.42;;
14169;SDS011;63889;50.596;8.690;2023-07-08T04:31:26;4.03;;;2.45;;
14169;SDS011;63889;50.596;8.690;2023-07-08T04:33:52;9.73;;;2.97;;
14169;SDS011;63889;50.596;8.690;2023-07-08T04:36:17;8.93;;;2.50;;
14169;SDS011;63889;50.596;8.690;2023-07-08T04:38:46;4.32;;;2.58;;
14169;SDS011;63889;50.596;8.690;2023-07-08T04:41:12;4.45;;;3.00;;
14169;SDS011;63889;50.596;8.690;2023-07-08T04:43:37;3.70;;;2.33;;
14169;SDS011;63889;50.596;8.690;2023-07-08T04:46:04;5.18;;;2.47;;
14169;SDS011;63889;50.596;8.690;2023-07-08T04:48:41;5.55;;;3.08;;
14169;SDS011;63889;50.596;8.690;2023-07-08T04:51:07;9.57;;;2.50;;
14169;SDS011;63889;50.596;8.690;2023-07-08T04:53:33;4.97;;;2.80;;
14169;SDS011;63889;50.596;8.690;2023-07-08T04:55:58;11.40;;;2.70;;
14169;SDS011;63889;50.596;8.690;2023-07-08T04:58:24;3.67;;;2.58;;
14169;SDS011;63889;50.596;8.690;2023-07-08T05:00:50;5.93;;;2.80;;
14169;SDS011;63889;50.596;8.690;2023-07-08T05:03:15;3.50;;;2.53;;
14169;SDS011;63889;50.596;8.690;2023-07-08T05:05:41;6.15;;;2.80;;
14169;SDS011;63889;50.596;8.690;2023-07-08T05:08:06;7.97;;;2.83;;
14169;SDS011;63889;50.596;8.690;2023-07-08T05:10:32;5.10;;;3.00;;
14169;SDS011;63889;50.596;8.690;2023-07-08T05:12:59;5.63;;;2.60;;
14169;SDS011;63889;50.596;8.690;2023-07-08T05:15:25;5.80;;;3.05;;
14169;SDS011;63889;50.596;8.690;2023-07-08T05:17:51;3.45;;;2.33;;
14169;SDS011;63889;50.596;8.690;2023-07-08T05:20:17;4.65;;;2.58;;
14169;SDS011;63889;50.596;8.690;2023-07-08T05:22:43;5.28;;;2.47;;
14169;SDS011;63889;50.596;8.690;2023-07-08T05:25:09;6.63;;;2.72;;
14169;SDS011;63889;50.596;8.690;2023-07-08T05:27:36;4.75;;;2.95;;
14169;SDS011;63889;50.596;8.690;2023-07-08T05:30:02;4.55;;;2.50;;
14169;SDS011;63889;50.596;8.690;2023-07-08T05:32:30;5.43;;;2.80;;
14169;SDS011;63889;50.596;8.690;2023-07-08T05:34:56;3.97;;;2.47;;
14169;SDS011;63889;50.596;8.690;2023-07-08T05:37:21;5.07;;;2.47;;
14169;SDS011;63889;50.596;8.690;2023-07-08T05:39:50;6.57;;;2.97;;
14169;SDS011;63889;50.596;8.690;2023-07-08T05:42:17;4.45;;;2.65;;
14169;SDS011;63889;50.596;8.690;2023-07-08T05:44:42;3.60;;;2.85;;
14169;SDS011;63889;50.596;8.690;2023-07-08T05:47:08;7.82;;;3.17;;
14169;SDS011;63889;50.596;8.690;2023-07-08T05:49:33;3.80;;;2.45;;
14169;SDS011;63889;50.596;8.690;2023-07-08T05:51:59;7.97;;;2.97;;
14169;SDS011;63889;50.596;8.690;2023-07-08T05:54:30;4.85;;;2.67;;
14169;SDS011;63889;50.596;8.690;2023-07-08T05:56:56;4.90;;;2.45;;
14169;SDS011;63889;50.596;8.690;2023-07-08T05:59:21;4.53;;;3.13;;
14169;SDS011;63889;50.596;8.690;2023-07-08T06:01:47;3.75;;;2.67;;
14169;SDS011;63889;50.596;8.690;2023-07-08T06:04:12;5.13;;;2.67;;
14169;SDS011;63889;50.596;8.690;2023-07-08T06:06:38;6.45;;;3.28;;
14169;SDS011;63889;50.596;8.690;2023-07-08T06:09:03;7.28;;;3.47;;
14169;SDS011;63889;50.596;8.690;2023-07-08T06:11:29;5.35;;;3.03;;
14169;SDS011;63889;50.596;8.690;2023-07-08T06:13:54;5.60;;;2.83;;
14169;SDS011;63889;50.596;8.690;2023-07-08T06:16:20;7.60;;;2.92;;
14169;SDS011;63889;50.596;8.690;2023-07-08T06:18:46;11.55;;;3.63;;
14169;SDS011;63889;50.596;8.690;2023-07-08T06:21:11;5.60;;;3.08;;
14169;SDS011;63889;50.596;8.690;2023-07-08T06:23:37;9.27;;;3.00;;
14169;SDS011;63889;50.596;8.690;2023-07-08T06:26:02;4.57;;;3.08;;
14169;SDS011;63889;50.596;8.690;2023-07-08T06:28:29;5.25;;;2.88;;
14169;SDS011;63889;50.596;8.690;2023-07-08T06:30:54;6.07;;;2.70;;
14169;SDS011;63889;50.596;8.690;2023-07-08T06:33:20;4.20;;;2.60;;
14169;SDS011;63889;50.596;8.690;2023-07-08T06:35:45;5.35;;;3.67;;
14169;SDS011;63889;50.596;8.690;2023-07-08T06:38:12;4.00;;;3.00;;
14169;SDS011;63889;50.596;8.690;2023-07-08T06:40:38;6.20;;;3.28;;
14169;SDS011;63889;50.596;8.690;2023-07-08T06:43:03;4.65;;;3.08;;
14169;SDS011;63889;50.596;8.690;2023-07-08T06:45:29;5.75;;;3.30;;
14169;SDS011;63889;50.596;8.690;2023-07-08T06:47:54;4.72;;;2.88;;
14169;SDS011;63889;50.596;8.690;2023-07-08T06:50:20;8.10;;;3.15;;
14169;SDS011;63889;50.596;8.690;2023-07-08T06:52:45;9.32;;;3.50;;
14169;SDS011;63889;50.596;8.690;2023-07-08T06:55:11;9.70;;;3.20;;
14169;SDS011;63889;50.596;8.690;2023-07-08T06:57:37;5.60;;;3.45;;
14169;SDS011;63889;50.596;8.690;2023-07-08T07:00:06;8.88;;;3.70;;
14169;SDS011;63889;50.596;8.690;2023-07-08T07:02:33;5.43;;;2.92;;
14169;SDS011;63889;50.596;8.690;2023-07-08T07:04:59;7.95;;;3.40;;
14169;SDS011;63889;50.596;8.690;2023-07-08T07:07:25;5.18;;;3.10;;
14169;SDS011;63889;50.596;8.690;2023-07-08T07:09:50;6.68;;;3.05;;
14169;SDS011;63889;50.596;8.690;2023-07-08T07:12:16;6.35;;;3.00;;
14169;SDS011;63889;50.596;8.690;2023-07-08T07:14:42;4.47;;;2.90;;
14169;SDS011;63889;50.596;8.690;2023-07-08T07:17:07;5.15;;;3.38;;
14169;SDS011;63889;50.596;8.690;2023-07-08T07:19:32;4.25;;;3.30;;
14169;SDS011;63889;50.596;8.690;2023-07-08T07:21:58;9.23;;;2.97;;
14169;SDS011;63889;50.596;8.690;2023-07-08T07:24:24;5.20;;;3.15;;
14169;SDS011;63889;50.596;8.690;2023-07-08T07:26:49;4.68;;;2.80;;
14169;SDS011;63889;50.596;8.690;2023-07-08T07:29:16;5.93;;;2.95;;
14169;SDS011;63889;50.596;8.690;2023-07-08T07:31:42;7.18;;;3.67;;
14169;SDS011;63889;50.596;8.690;2023-07-08T07:34:08;4.78;;;3.08;;
14169;SDS011;63889;50.596;8.690;2023-07-08T07:36:34;8.02;;;3.30;;
14169;SDS011;63889;50.596;8.690;2023-07-08T07:38:59;6.97;;;2.92;;
14169;SDS011;63889;50.596;8.690;2023-07-08T07:41:25;7.85;;;2.70;;
14169;SDS011;63889;50.596;8.690;2023-07-08T07:43:51;9.68;;;3.92;;
14169;SDS011;63889;50.596;8.690;2023-07-08T07:46:16;9.35;;;3.35;;
14169;SDS011;63889;50.596;8.690;2023-07-08T07:48:42;8.45;;;3.60;;
14169;SDS011;63889;50.596;8.690;2023-07-08T07:51:07;8.10;;;3.58;;
14169;SDS011;63889;50.596;8.690;2023-07-08T07:53:35;6.80;;;3.90;;
14169;SDS011;63889;50.596;8.690;2023-07-08T07:56:02;7.07;;;3.50;;
14169;SDS011;63889;50.596;8.690;2023-07-08T07:58:28;4.97;;;2.92;;
14169;SDS011;63889;50.596;8.690;2023-07-08T08:00:54;4.50;;;2.95;;
14169;SDS011;63889;50.596;8.690;2023-07-08T08:03:20;6.32;;;3.28;;
14169;SDS011;63889;50.596;8.690;2023-07-08T08:05:46;5.22;;;3.70;;
14169;SDS011;63889;50.596;8.690;2023-07-08T08:08:13;5.55;;;3.20;;
14169;SDS011;63889;50.596;8.690;2023-07-08T08:10:38;9.90;;;3.85;;
14169;SDS011;63889;50.596;8.690;2023-07-08T08:13:04;7.70;;;3.55;;
14169;SDS011;63889;50.596;8.690;2023-07-08T08:15:30;7.53;;;3.20;;
14169;SDS011;63889;50.596;8.690;2023-07-08T08:17:55;8.23;;;3.47;;
14169;SDS011;63889;50.596;8.690;2023-07-08T08:20:21;7.20;;;3.70;;
14169;SDS011;63889;50.596;8.690;2023-07-08T08:22:48;8.18;;;3.47;;
14169;SDS011;63889;50.596;8.690;2023-07-08T08:25:14;7.47;;;3.65;;
14169;SDS011;63889;50.596;8.690;2023-07-08T08:27:40;14.98;;;3.83;;
14169;SDS011;63889;50.596;8.690;2023-07-08T08:30:06;6.80;;;3.40;;
14169;SDS011;63889;50.596;8.690;2023-07-08T08:32:33;5.03;;;3.53;;
14169;SDS011;63889;50.596;8.690;2023-07-08T08:34:58;5.28;;;3.72;;
14169;SDS011;63889;50.596;8.690;2023-07-08T08:37:24;7.55;;;3.30;;
14169;SDS011;63889;50.596;8.690;2023-07-08T08:39:49;5.32;;;3.72;;
14169;SDS011;63889;50.596;8.690;2023-07-08T08:42:41;5.55;;;3.72;;
14169;SDS011;63889;50.596;8.690;2023-07-08T08:47:38;8.95;;;3.75;;
14169;SDS011;63889;50.596;8.690;2023-07-08T08:52:43;9.35;;;3.88;;
14169;SDS011;63889;50.596;8.690;2023-07-08T08:55:12;6.50;;;3.67;;
14169;SDS011;63889;50.596;8.690;2023-07-08T09:00:35;7.13;;;3.53;;
14169;SDS011;63889;50.596;8.690;2023-07-08T09:06:13;8.02;;;3.92;;
14169;SDS011;63889;50.596;8.690;2023-07-08T09:08:38;6.22;;;3.53;;
14169;SDS011;63889;50.596;8.690;2023-07-08T09:11:15;8.93;;;3.90;;
14169;SDS011;63889;50.596;8.690;2023-07-08T09:13:50;4.80;;;3.42;;
14169;SDS011;63889;50.596;8.690;2023-07-08T09:17:01;6.10;;;3.75;;
14169;SDS011;63889;50.596;8.690;2023-07-08T09:19:14;5.72;;;3.60;;
14169;SDS011;63889;50.596;8.690;2023-07-08T09:21:47;8.00;;;3.88;;
14169;SDS011;63889;50.596;8.690;2023-07-08T09:24:19;8.65;;;3.88;;
14169;SDS011;63889;50.596;8.690;2023-07-08T09:26:54;5.18;;;3.88;;
14169;SDS011;63889;50.596;8.690;2023-07-08T09:29:23;6.85;;;4.25;;
14169;SDS011;63889;50.596;8.690;2023-07-08T09:31:49;5.55;;;3.70;;
14169;SDS011;63889;50.596;8.690;2023-07-08T09:34:16;5.30;;;3.90;;
14169;SDS011;63889;50.596;8.690;2023-07-08T09:36:44;7.25;;;3.70;;
14169;SDS011;63889;50.596;8.690;2023-07-08T09:39:13;7.32;;;4.63;;
14169;SDS011;63889;50.596;8.690;2023-07-08T09:41:40;6.78;;;4.20;;
14169;SDS011;63889;50.596;8.690;2023-07-08T09:44:18;7.05;;;4.45;;
14169;SDS011;63889;50.596;8.690;2023-07-08T09:46:51;8.93;;;4.30;;
14169;SDS011;63889;50.596;8.690;2023-07-08T09:49:22;8.07;;;4.70;;
14169;SDS011;63889;50.596;8.690;2023-07-08T09:51:51;8.13;;;4.22;;
14169;SDS011;63889;50.596;8.690;2023-07-08T09:54:18;7.93;;;4.20;;
14169;SDS011;63889;50.596;8.690;2023-07-08T09:56:52;8.05;;;4.55;;
14169;SDS011;63889;50.596;8.690;2023-07-08T09:59:23;7.28;;;4.43;;
14169;SDS011;63889;50.596;8.690;2023-07-08T10:01:56;10.15;;;4.50;;
14169;SDS011;63889;50.596;8.690;2023-07-08T10:04:24;7.47;;;4.20;;
14169;SDS011;63889;50.596;8.690;2023-07-08T10:06:49;6.53;;;4.30;;
14169;SDS011;63889;50.596;8.690;2023-07-08T10:09:19;12.18;;;4.97;;
14169;SDS011;63889;50.596;8.690;2023-07-08T10:11:47;8.52;;;4.88;;
14169;SDS011;63889;50.596;8.690;2023-07-08T10:14:23;11.10;;;4.75;;
14169;SDS011;63889;50.596;8.690;2023-07-08T10:16:58;6.70;;;4.60;;
14169;SDS011;63889;50.596;8.690;2023-07-08T10:19:24;7.38;;;4.35;;
14169;SDS011;63889;50.596;8.690;2023-07-08T10:29:54;8.20;;;4.43;;
14169;SDS011;63889;50.596;8.690;2023-07-08T10:35:15;5.75;;;4.22;;
14169;SDS011;63889;50.596;8.690;2023-07-08T10:40:39;8.00;;;4.95;;
14169;SDS011;63889;50.596;8.690;2023-07-08T10:55:05;6.10;;;4.20;;
14169;SDS011;63889;50.596;8.690;2023-07-08T11:05:42;6.10;;;5.15;;
14169;SDS011;63889;50.596;8.690;2023-07-08T11:13:31;6.85;;;4.82;;
14169;SDS011;63889;50.596;8.690;2023-07-08T11:16:04;6.82;;;5.60;;
14169;SDS011;63889;50.596;8.690;2023-07-08T11:18:53;6.30;;;4.60;;
14169;SDS011;63889;50.596;8.690;2023-07-08T11:24:11;26.27;;;6.10;;
14169;SDS011;63889;50.596;8.690;2023-07-08T11:29:41;6.38;;;5.18;;
14169;SDS011;63889;50.596;8.690;2023-07-08T11:32:15;10.95;;;4.97;;
14169;SDS011;63889;50.596;8.690;2023-07-08T11:34:44;8.60;;;4.57;;
14169;SDS011;63889;50.596;8.690;2023-07-08T11:37:13;7.85;;;5.10;;
14169;SDS011;63889;50.596;8.690;2023-07-08T11:39:44;6.63;;;5.00;;
14169;SDS011;63889;50.596;8.690;2023-07-08T11:44:47;11.82;;;5.80;;
14169;SDS011;63889;50.596;8.690;2023-07-08T11:47:19;9.27;;;5.30;;
14169;SDS011;63889;50.596;8.690;2023-07-08T11:49:50;9.60;;;5.28;;
14169;SDS011;63889;50.596;8.690;2023-07-08T11:52:18;8.93;;;5.13;;
14169;SDS011;63889;50.596;8.690;2023-07-08T11:54:45;9.00;;;5.50;;
14169;SDS011;63889;50.596;8.690;2023-07-08T11:57:23;8.13;;;5.65;;
14169;SDS011;63889;50.596;8.690;2023-07-08T12:00:10;9.90;;;5.35;;
14169;SDS011;63889;50.596;8.690;2023-07-08T12:03:39;8.02;;;5.32;;
14169;SDS011;63889;50.596;8.690;2023-07-08T12:05:46;11.18;;;5.95;;
14169;SDS011;63889;50.596;8.690;2023-07-08T12:08:15;9.15;;;5.30;;
14169;SDS011;63889;50.596;8.690;2023-07-08T12:10:48;14.52;;;6.53;;
14169;SDS011;63889;50.596;8.690;2023-07-08T12:13:23;14.15;;;5.70;;
14169;SDS011;63889;50.596;8.690;2023-07-08T12:15:49;8.88;;;5.25;;
14169;SDS011;63889;50.596;8.690;2023-07-08T12:20:52;7.63;;;5.05;;
14169;SDS011;63889;50.596;8.690;2023-07-08T12:23:26;11.18;;;5.53;;
14169;SDS011;63889;50.596;8.690;2023-07-08T12:25:53;6.35;;;4.80;;
14169;SDS011;63889;50.596;8.690;2023-07-08T12:28:21;8.23;;;5.60;;
14169;SDS011;63889;50.596;8.690;2023-07-08T12:30:47;9.52;;;5.45;;
14169;SDS011;63889;50.596;8.690;2023-07-08T12:33:16;8.55;;;5.13;;
14169;SDS011;63889;50.596;8.690;2023-07-08T12:35:48;10.82;;;5.95;;
14169;SDS011;63889;50.596;8.690;2023-07-08T12:40:52;6.72;;;5.50;;
14169;SDS011;63889;50.596;8.690;2023-07-08T12:43:18;8.77;;;5.50;;
14169;SDS011;63889;50.596;8.690;2023-07-08T12:45:43;12.02;;;5.95;;
14169;SDS011;63889;50.596;8.690;2023-07-08T12:48:09;8.10;;;5.50;;
14169;SDS011;63889;50.596;8.690;2023-07-08T12:50:35;8.52;;;5.90;;
14169;SDS011;63889;50.596;8.690;2023-07-08T12:53:03;9.00;;;5.45;;
14169;SDS011;63889;50.596;8.690;2023-07-08T12:55:34;14.93;;;6.07;;
14169;SDS011;63889;50.596;8.690;2023-07-08T12:58:01;7.28;;;5.40;;
14169;SDS011;63889;50.596;8.690;2023-07-08T13:00:31;8.25;;;5.95;;
14169;SDS011;63889;50.596;8.690;2023-07-08T13:03:08;7.82;;;4.97;;
14169;SDS011;63889;50.596;8.690;2023-07-08T13:05:47;10.98;;;5.72;;
14169;SDS011;63889;50.596;8.690;2023-07-08T13:08:14;16.05;;;6.22;;
14169;SDS011;63889;50.596;8.690;2023-07-08T13:10:43;10.00;;;5.40;;
14169;SDS011;63889;50.596;8.690;2023-07-08T13:13:16;8.85;;;5.35;;
14169;SDS011;63889;50.596;8.690;2023-07-08T13:15:48;10.00;;;5.82;;
14169;SDS011;63889;50.596;8.690;2023-07-08T13:18:20;7.40;;;5.25;;
14169;SDS011;63889;50.596;8.690;2023-07-08T13:20:53;8.57;;;5.35;;
14169;SDS011;63889;50.596;8.690;2023-07-08T13:23:20;10.52;;;5.70;;
14169;SDS011;63889;50.596;8.690;2023-07-08T13:25:47;8.18;;;5.30;;
14169;SDS011;63889;50.596;8.690;2023-07-08T13:28:16;10.75;;;5.63;;
14169;SDS011;63889;50.596;8.690;2023-07-08T13:30:51;8.68;;;4.88;;
14169;SDS011;63889;50.596;8.690;2023-07-08T13:33:18;7.63;;;5.15;;
14169;SDS011;63889;50.596;8.690;2023-07-08T13:35:45;9.07;;;5.22;;
14169;SDS011;63889;50.596;8.690;2023-07-08T13:38:19;5.82;;;4.57;;
14169;SDS011;63889;50.596;8.690;2023-07-08T13:40:47;8.73;;;5.38;;
14169;SDS011;63889;50.596;8.690;2023-07-08T13:43:22;9.85;;;5.18;;
14169;SDS011;63889;50.596;8.690;2023-07-08T13:45:53;7.43;;;5.20;;
14169;SDS011;63889;50.596;8.690;2023-07-08T13:48:39;7.28;;;5.30;;
14169;SDS011;63889;50.596;8.690;2023-07-08T13:53:44;8.82;;;5.38;;
14169;SDS011;63889;50.596;8.690;2023-07-08T13:56:27;8.80;;;5.45;;
14169;SDS011;63889;50.596;8.690;2023-07-08T13:59:02;7.57;;;5.28;;
14169;SDS011;63889;50.596;8.690;2023-07-08T14:01:33;10.65;;;5.93;;
14169;SDS011;63889;50.596;8.690;2023-07-08T14:04:00;10.57;;;4.90;;
14169;SDS011;63889;50.596;8.690;2023-07-08T14:06:30;7.93;;;5.07;;
14169;SDS011;63889;50.596;8.690;2023-07-08T14:09:03;8.05;;;5.15;;
14169;SDS011;63889;50.596;8.690;2023-07-08T14:11:40;8.63;;;5.07;;
14169;SDS011;63889;50.596;8.690;2023-07-08T14:14:07;10.95;;;4.80;;
14169;SDS011;63889;50.596;8.690;2023-07-08T14:16:33;11.75;;;5.20;;
14169;SDS011;63889;50.596;8.690;2023-07-08T14:19:02;10.35;;;5.10;;
14169;SDS011;63889;50.596;8.690;2023-07-08T14:21:30;9.57;;;5.15;;
14169;SDS011;63889;50.596;8.690;2023-07-08T14:23:59;7.53;;;4.63;;
14169;SDS011;63889;50.596;8.690;2023-07-08T14:26:25;8.05;;;4.97;;
14169;SDS011;63889;50.596;8.690;2023-07-08T14:28:51;6.50;;;4.72;;
14169;SDS011;63889;50.596;8.690;2023-07-08T14:31:18;8.23;;;5.35;;
14169;SDS011;63889;50.596;8.690;2023-07-08T14:33:49;7.55;;;4.88;;
14169;SDS011;63889;50.596;8.690;2023-07-08T14:36:23;8.02;;;4.80;;
14169;SDS011;63889;50.596;8.690;2023-07-08T14:38:48;8.32;;;4.60;;
14169;SDS011;63889;50.596;8.690;2023-07-08T14:41:14;8.23;;;5.22;;
14169;SDS011;63889;50.596;8.690;2023-07-08T14:43:39;9.25;;;5.32;;
14169;SDS011;63889;50.596;8.690;2023-07-08T14:46:05;10.02;;;4.97;;
14169;SDS011;63889;50.596;8.690;2023-07-08T14:48:34;10.27;;;5.30;;
14169;SDS011;63889;50.596;8.690;2023-07-08T14:50:59;10.02;;;4.57;;
14169;SDS011;63889;50.596;8.690;2023-07-08T14:53:25;8.48;;;4.93;;
14169;SDS011;63889;50.596;8.690;2023-07-08T14:55:52;7.90;;;4.80;;
14169;SDS011;63889;50.596;8.690;2023-07-08T14:58:21;7.28;;;5.07;;
14169;SDS011;63889;50.596;8.690;2023-07-08T15:00:47;10.65;;;4.78;;
14169;SDS011;63889;50.596;8.690;2023-07-08T15:03:14;9.57;;;5.05;;
14169;SDS011;63889;50.596;8.690;2023-07-08T15:05:40;6.22;;;4.20;;
14169;SDS011;63889;50.596;8.690;2023-07-08T15:08:07;9.50;;;5.20;;
14169;SDS011;63889;50.596;8.690;2023-07-08T15:10:32;7.05;;;4.82;;
14169;SDS011;63889;50.596;8.690;2023-07-08T15:13:00;9.35;;;5.20;;
14169;SDS011;63889;50.596;8.690;2023-07-08T15:15:27;9.00;;;5.28;;
14169;SDS011;63889;50.596;8.690;2023-07-08T15:17:55;7.15;;;4.93;;
14169;SDS011;63889;50.596;8.690;2023-07-08T15:20:22;8.30;;;5.50;;
14169;SDS011;63889;50.596;8.690;2023-07-08T15:22:48;6.13;;;4.88;;
14169;SDS011;63889;50.596;8.690;2023-07-08T15:25:14;8.30;;;5.32;;
14169;SDS011;63889;50.596;8.690;2023-07-08T15:27:41;8.88;;;5.35;;
14169;SDS011;63889;50.596;8.690;2023-07-08T15:30:18;10.82;;;5.72;;
14169;SDS011;63889;50.596;8.690;2023-07-08T15:32:45;8.02;;;4.70;;
14169;SDS011;63889;50.596;8.690;2023-07-08T15:35:12;10.98;;;5.80;;
14169;SDS011;63889;50.596;8.690;2023-07-08T15:37:55;8.45;;;5.35;;
14169;SDS011;63889;50.596;8.690;2023-07-08T15:40:22;8.77;;;4.85;;
14169;SDS011;63889;50.596;8.690;2023-07-08T15:42:50;5.72;;;4.63;;
14169;SDS011;63889;50.596;8.690;2023-07-08T15:45:25;8.80;;;5.10;;
14169;SDS011;63889;50.596;8.690;2023-07-08T15:47:53;6.90;;;4.80;;
14169;SDS011;63889;50.596;8.690;2023-07-08T15:50:20;11.68;;;4.80;;
14169;SDS011;63889;50.596;8.690;2023-07-08T15:52:47;8.45;;;4.93;;
14169;SDS011;63889;50.596;8.690;2023-07-08T15:55:13;8.88;;;4.72;;
14169;SDS011;63889;50.596;8.690;2023-07-08T15:57:49;8.65;;;4.88;;
14169;SDS011;63889;50.596;8.690;2023-07-08T16:00:24;9.80;;;5.22;;
14169;SDS011;63889;50.596;8.690;2023-07-08T16:02:55;10.77;;;5.30;;
14169;SDS011;63889;50.596;8.690;2023-07-08T16:05:24;9.60;;;4.25;;